sensor_id;sensor_type;location;lat;lon;timestamp;P1;durP1;ratioP1;P2;durP2;ratioP2
13252;SDS011;6693;54.370;10.132;2023-02-08T00:00:34;32.72;;;15.55;;
13252;SDS011;6693;54.370;10.132;2023-02-08T00:01:37;35.83;;;16.42;;
13252;SDS011;6693;54.370;10.132;2023-02-08T00:02:37;34.53;;;15.70;;
13252;SDS011;6693;54.370;10.132;2023-02-08T00:03:41;37.03;;;16.20;;
13252;SDS011;6693;54.370;10.132;2023-02-08T00:04:42;32.70;;;14.50;;
13252;SDS011;6693;54.370;10.132;2023-02-08T00:05:45;32.35;;;14.27;;
13252;SDS011;6693;54.370;10.132;2023-02-08T00:06:46;32.67;;;14.10;;
13252;SDS011;6693;54.370;10.132;2023-02-08T00:07:49;31.40;;;14.50;;
13252;SDS011;6693;54.370;10.132;2023-02-08T00:08:55;31.35;;;14.43;;
13252;SDS011;6693;54.370;10.132;2023-02-08T00:10:00;28.95;;;12.40;;
13252;SDS011;6693;54.370;10.132;2023-02-08T00:11:04;29.00;;;12.90;;
13252;SDS011;6693;54.370;10.132;2023-02-08T00:12:09;28.67;;;12.70;;
13252;SDS011;6693;54.370;10.132;2023-02-08T00:13:10;31.90;;;14.50;;
13252;SDS011;6693;54.370;10.132;2023-02-08T00:14:13;29.90;;;14.30;;
13252;SDS011;6693;54.370;10.132;2023-02-08T00:15:13;30.85;;;14.70;;
13252;SDS011;6693;54.370;10.132;2023-02-08T00:16:17;30.50;;;12.48;;
13252;SDS011;6693;54.370;10.132;2023-02-08T00:17:17;32.75;;;14.85;;
13252;SDS011;6693;54.370;10.132;2023-02-08T00:18:21;30.20;;;14.60;;
13252;SDS011;6693;54.370;10.132;2023-02-08T00:19:21;33.20;;;14.45;;
13252;SDS011;6693;54.370;10.132;2023-02-08T00:20:25;30.55;;;13.55;;
13252;SDS011;6693;54.370;10.132;2023-02-08T00:21:25;31.23;;;15.80;;
13252;SDS011;6693;54.370;10.132;2023-02-08T00:22:28;30.25;;;14.70;;
13252;SDS011;6693;54.370;10.132;2023-02-08T00:23:29;28.92;;;13.23;;
13252;SDS011;6693;54.370;10.132;2023-02-08T00:24:35;29.75;;;14.57;;
13252;SDS011;6693;54.370;10.132;2023-02-08T00:25:35;32.95;;;15.52;;
13252;SDS011;6693;54.370;10.132;2023-02-08T00:26:39;31.98;;;15.27;;
13252;SDS011;6693;54.370;10.132;2023-02-08T00:27:39;29.70;;;15.13;;
13252;SDS011;6693;54.370;10.132;2023-02-08T00:28:42;28.33;;;12.98;;
13252;SDS011;6693;54.370;10.132;2023-02-08T00:29:43;32.42;;;14.57;;
13252;SDS011;6693;54.370;10.132;2023-02-08T00:30:46;30.95;;;15.00;;
13252;SDS011;6693;54.370;10.132;2023-02-08T00:31:47;30.95;;;14.77;;
13252;SDS011;6693;54.370;10.132;2023-02-08T00:32:50;33.13;;;14.82;;
13252;SDS011;6693;54.370;10.132;2023-02-08T00:33:51;32.80;;;14.68;;
13252;SDS011;6693;54.370;10.132;2023-02-08T00:34:54;30.83;;;15.40;;
13252;SDS011;6693;54.370;10.132;2023-02-08T00:35:57;31.08;;;14.27;;
13252;SDS011;6693;54.370;10.132;2023-02-08T00:37:00;33.55;;;15.45;;
13252;SDS011;6693;54.370;10.132;2023-02-08T00:38:01;33.15;;;14.73;;
13252;SDS011;6693;54.370;10.132;2023-02-08T00:39:04;31.80;;;13.95;;
13252;SDS011;6693;54.370;10.132;2023-02-08T00:40:08;30.75;;;14.48;;
13252;SDS011;6693;54.370;10.132;2023-02-08T00:41:12;30.98;;;14.43;;
13252;SDS011;6693;54.370;10.132;2023-02-08T00:42:12;33.35;;;14.88;;
13252;SDS011;6693;54.370;10.132;2023-02-08T00:43:16;32.17;;;14.95;;
13252;SDS011;6693;54.370;10.132;2023-02-08T00:44:17;33.63;;;14.45;;
13252;SDS011;6693;54.370;10.132;2023-02-08T00:45:20;31.33;;;14.98;;
13252;SDS011;6693;54.370;10.132;2023-02-08T00:46:20;32.97;;;14.88;;
13252;SDS011;6693;54.370;10.132;2023-02-08T00:47:24;31.00;;;15.15;;
13252;SDS011;6693;54.370;10.132;2023-02-08T00:48:24;30.63;;;14.25;;
13252;SDS011;6693;54.370;10.132;2023-02-08T00:49:28;32.72;;;13.75;;
13252;SDS011;6693;54.370;10.132;2023-02-08T00:50:28;33.40;;;14.35;;
13252;SDS011;6693;54.370;10.132;2023-02-08T00:51:31;31.98;;;14.07;;
13252;SDS011;6693;54.370;10.132;2023-02-08T00:52:32;31.88;;;14.23;;
13252;SDS011;6693;54.370;10.132;2023-02-08T00:53:36;33.08;;;14.45;;
13252;SDS011;6693;54.370;10.132;2023-02-08T00:54:37;30.30;;;13.45;;
13252;SDS011;6693;54.370;10.132;2023-02-08T00:55:43;32.15;;;14.07;;
13252;SDS011;6693;54.370;10.132;2023-02-08T00:56:50;32.17;;;13.80;;
13252;SDS011;6693;54.370;10.132;2023-02-08T00:57:53;33.22;;;13.85;;
13252;SDS011;6693;54.370;10.132;2023-02-08T00:58:53;33.85;;;14.82;;
13252;SDS011;6693;54.370;10.132;2023-02-08T00:59:57;26.50;;;12.48;;
13252;SDS011;6693;54.370;10.132;2023-02-08T01:01:00;30.45;;;13.50;;
13252;SDS011;6693;54.370;10.132;2023-02-08T01:02:01;31.75;;;15.10;;
13252;SDS011;6693;54.370;10.132;2023-02-08T01:03:04;28.70;;;14.07;;
13252;SDS011;6693;54.370;10.132;2023-02-08T01:04:05;30.83;;;13.93;;
13252;SDS011;6693;54.370;10.132;2023-02-08T01:05:08;31.77;;;13.90;;
13252;SDS011;6693;54.370;10.132;2023-02-08T01:06:09;33.00;;;14.63;;
13252;SDS011;6693;54.370;10.132;2023-02-08T01:07:16;33.40;;;14.10;;
13252;SDS011;6693;54.370;10.132;2023-02-08T01:08:17;34.92;;;15.18;;
13252;SDS011;6693;54.370;10.132;2023-02-08T01:09:21;33.10;;;15.05;;
13252;SDS011;6693;54.370;10.132;2023-02-08T01:10:22;29.65;;;12.70;;
13252;SDS011;6693;54.370;10.132;2023-02-08T01:11:27;29.48;;;13.05;;
13252;SDS011;6693;54.370;10.132;2023-02-08T01:12:28;31.13;;;14.13;;
13252;SDS011;6693;54.370;10.132;2023-02-08T01:13:31;30.38;;;12.82;;
13252;SDS011;6693;54.370;10.132;2023-02-08T01:14:32;28.95;;;13.68;;
13252;SDS011;6693;54.370;10.132;2023-02-08T01:15:36;28.38;;;13.20;;
13252;SDS011;6693;54.370;10.132;2023-02-08T01:16:36;33.13;;;14.77;;
13252;SDS011;6693;54.370;10.132;2023-02-08T01:17:40;32.63;;;13.88;;
13252;SDS011;6693;54.370;10.132;2023-02-08T01:18:41;29.63;;;13.15;;
13252;SDS011;6693;54.370;10.132;2023-02-08T01:19:45;30.40;;;13.25;;
13252;SDS011;6693;54.370;10.132;2023-02-08T01:20:46;27.77;;;14.18;;
13252;SDS011;6693;54.370;10.132;2023-02-08T01:21:49;31.58;;;13.73;;
13252;SDS011;6693;54.370;10.132;2023-02-08T01:22:50;30.83;;;14.00;;
13252;SDS011;6693;54.370;10.132;2023-02-08T01:23:53;32.28;;;14.43;;
13252;SDS011;6693;54.370;10.132;2023-02-08T01:24:54;29.05;;;13.90;;
13252;SDS011;6693;54.370;10.132;2023-02-08T01:25:57;30.65;;;13.80;;
13252;SDS011;6693;54.370;10.132;2023-02-08T01:27:00;27.58;;;13.40;;
13252;SDS011;6693;54.370;10.132;2023-02-08T01:28:03;28.92;;;13.38;;
13252;SDS011;6693;54.370;10.132;2023-02-08T01:29:04;29.50;;;13.68;;
13252;SDS011;6693;54.370;10.132;2023-02-08T01:30:08;27.67;;;13.27;;
13252;SDS011;6693;54.370;10.132;2023-02-08T01:31:10;29.15;;;14.25;;
13252;SDS011;6693;54.370;10.132;2023-02-08T01:32:14;26.92;;;13.07;;
13252;SDS011;6693;54.370;10.132;2023-02-08T01:33:17;29.73;;;13.00;;
13252;SDS011;6693;54.370;10.132;2023-02-08T01:34:18;28.02;;;13.27;;
13252;SDS011;6693;54.370;10.132;2023-02-08T01:35:21;30.00;;;13.13;;
13252;SDS011;6693;54.370;10.132;2023-02-08T01:36:22;30.05;;;14.10;;
13252;SDS011;6693;54.370;10.132;2023-02-08T01:37:26;28.70;;;13.38;;
13252;SDS011;6693;54.370;10.132;2023-02-08T01:38:26;29.83;;;14.43;;
13252;SDS011;6693;54.370;10.132;2023-02-08T01:39:30;28.50;;;13.50;;
13252;SDS011;6693;54.370;10.132;2023-02-08T01:40:30;29.95;;;13.70;;
13252;SDS011;6693;54.370;10.132;2023-02-08T01:41:34;28.38;;;13.38;;
13252;SDS011;6693;54.370;10.132;2023-02-08T01:42:39;30.75;;;13.95;;
13252;SDS011;6693;54.370;10.132;2023-02-08T01:45:20;26.33;;;12.63;;
13252;SDS011;6693;54.370;10.132;2023-02-08T01:46:26;28.63;;;13.40;;
13252;SDS011;6693;54.370;10.132;2023-02-08T01:47:27;29.02;;;13.73;;
13252;SDS011;6693;54.370;10.132;2023-02-08T01:48:32;27.38;;;13.25;;
13252;SDS011;6693;54.370;10.132;2023-02-08T01:49:35;30.65;;;14.35;;
13252;SDS011;6693;54.370;10.132;2023-02-08T01:50:41;28.05;;;13.55;;
13252;SDS011;6693;54.370;10.132;2023-02-08T01:51:44;28.75;;;13.77;;
13252;SDS011;6693;54.370;10.132;2023-02-08T01:52:50;27.27;;;13.00;;
13252;SDS011;6693;54.370;10.132;2023-02-08T01:53:51;30.00;;;14.02;;
13252;SDS011;6693;54.370;10.132;2023-02-08T01:54:56;28.90;;;11.98;;
13252;SDS011;6693;54.370;10.132;2023-02-08T01:55:58;30.23;;;13.35;;
13252;SDS011;6693;54.370;10.132;2023-02-08T01:57:03;28.52;;;12.90;;
13252;SDS011;6693;54.370;10.132;2023-02-08T01:58:07;29.35;;;13.68;;
13252;SDS011;6693;54.370;10.132;2023-02-08T01:59:12;24.95;;;12.05;;
13252;SDS011;6693;54.370;10.132;2023-02-08T02:00:16;29.92;;;13.43;;
13252;SDS011;6693;54.370;10.132;2023-02-08T02:01:40;27.80;;;12.77;;
13252;SDS011;6693;54.370;10.132;2023-02-08T02:02:42;24.70;;;12.25;;
13252;SDS011;6693;54.370;10.132;2023-02-08T02:03:48;26.00;;;11.93;;
13252;SDS011;6693;54.370;10.132;2023-02-08T02:04:48;26.50;;;12.55;;
13252;SDS011;6693;54.370;10.132;2023-02-08T02:05:54;27.08;;;12.35;;
13252;SDS011;6693;54.370;10.132;2023-02-08T02:06:57;25.35;;;11.90;;
13252;SDS011;6693;54.370;10.132;2023-02-08T02:08:01;23.67;;;10.85;;
13252;SDS011;6693;54.370;10.132;2023-02-08T02:09:04;25.05;;;11.40;;
13252;SDS011;6693;54.370;10.132;2023-02-08T02:10:13;22.85;;;11.18;;
13252;SDS011;6693;54.370;10.132;2023-02-08T02:11:17;22.73;;;11.02;;
13252;SDS011;6693;54.370;10.132;2023-02-08T02:12:21;25.77;;;10.18;;
13252;SDS011;6693;54.370;10.132;2023-02-08T02:13:26;23.98;;;10.68;;
13252;SDS011;6693;54.370;10.132;2023-02-08T02:14:29;25.05;;;11.07;;
13252;SDS011;6693;54.370;10.132;2023-02-08T02:15:30;23.10;;;11.48;;
13252;SDS011;6693;54.370;10.132;2023-02-08T02:16:33;24.73;;;11.55;;
13252;SDS011;6693;54.370;10.132;2023-02-08T02:17:34;25.52;;;12.23;;
13252;SDS011;6693;54.370;10.132;2023-02-08T02:18:37;25.75;;;12.27;;
13252;SDS011;6693;54.370;10.132;2023-02-08T02:19:39;24.20;;;11.52;;
13252;SDS011;6693;54.370;10.132;2023-02-08T02:20:57;24.35;;;11.20;;
13252;SDS011;6693;54.370;10.132;2023-02-08T02:22:06;26.40;;;12.57;;
13252;SDS011;6693;54.370;10.132;2023-02-08T02:25:00;24.02;;;10.68;;
13252;SDS011;6693;54.370;10.132;2023-02-08T02:27:56;25.55;;;11.20;;
13252;SDS011;6693;54.370;10.132;2023-02-08T02:30:28;22.80;;;10.43;;
13252;SDS011;6693;54.370;10.132;2023-02-08T02:31:45;24.58;;;11.38;;
13252;SDS011;6693;54.370;10.132;2023-02-08T02:34:30;25.85;;;12.02;;
13252;SDS011;6693;54.370;10.132;2023-02-08T02:35:35;28.30;;;12.65;;
13252;SDS011;6693;54.370;10.132;2023-02-08T02:36:43;27.50;;;12.82;;
13252;SDS011;6693;54.370;10.132;2023-02-08T02:37:49;25.25;;;11.70;;
13252;SDS011;6693;54.370;10.132;2023-02-08T02:38:57;27.08;;;12.13;;
13252;SDS011;6693;54.370;10.132;2023-02-08T02:40:04;27.33;;;13.40;;
13252;SDS011;6693;54.370;10.132;2023-02-08T02:41:14;25.58;;;12.60;;
13252;SDS011;6693;54.370;10.132;2023-02-08T02:42:40;26.60;;;12.07;;
13252;SDS011;6693;54.370;10.132;2023-02-08T02:44:03;27.20;;;12.60;;
13252;SDS011;6693;54.370;10.132;2023-02-08T02:45:11;26.85;;;12.73;;
13252;SDS011;6693;54.370;10.132;2023-02-08T02:46:20;27.70;;;13.40;;
13252;SDS011;6693;54.370;10.132;2023-02-08T02:47:28;26.20;;;12.35;;
13252;SDS011;6693;54.370;10.132;2023-02-08T02:48:37;29.02;;;12.45;;
13252;SDS011;6693;54.370;10.132;2023-02-08T02:49:43;23.55;;;11.55;;
13252;SDS011;6693;54.370;10.132;2023-02-08T02:50:50;25.23;;;11.65;;
13252;SDS011;6693;54.370;10.132;2023-02-08T02:51:56;24.70;;;11.90;;
13252;SDS011;6693;54.370;10.132;2023-02-08T02:52:58;27.15;;;11.88;;
13252;SDS011;6693;54.370;10.132;2023-02-08T02:54:04;24.30;;;10.85;;
13252;SDS011;6693;54.370;10.132;2023-02-08T02:55:07;29.10;;;13.40;;
13252;SDS011;6693;54.370;10.132;2023-02-08T02:56:13;25.02;;;11.52;;
13252;SDS011;6693;54.370;10.132;2023-02-08T02:57:16;26.40;;;12.13;;
13252;SDS011;6693;54.370;10.132;2023-02-08T02:58:23;25.52;;;13.10;;
13252;SDS011;6693;54.370;10.132;2023-02-08T02:59:24;25.63;;;13.13;;
13252;SDS011;6693;54.370;10.132;2023-02-08T03:00:28;26.63;;;12.73;;
13252;SDS011;6693;54.370;10.132;2023-02-08T03:01:30;26.77;;;12.52;;
13252;SDS011;6693;54.370;10.132;2023-02-08T03:02:36;24.80;;;12.20;;
13252;SDS011;6693;54.370;10.132;2023-02-08T03:03:37;26.02;;;12.07;;
13252;SDS011;6693;54.370;10.132;2023-02-08T03:04:47;26.70;;;11.73;;
13252;SDS011;6693;54.370;10.132;2023-02-08T03:05:50;26.15;;;12.48;;
13252;SDS011;6693;54.370;10.132;2023-02-08T03:06:57;26.75;;;12.98;;
13252;SDS011;6693;54.370;10.132;2023-02-08T03:08:07;25.83;;;11.80;;
13252;SDS011;6693;54.370;10.132;2023-02-08T03:09:22;26.05;;;11.63;;
13252;SDS011;6693;54.370;10.132;2023-02-08T03:10:34;25.00;;;11.38;;
13252;SDS011;6693;54.370;10.132;2023-02-08T03:11:50;21.95;;;10.70;;
13252;SDS011;6693;54.370;10.132;2023-02-08T03:12:57;26.30;;;12.65;;
13252;SDS011;6693;54.370;10.132;2023-02-08T03:14:09;26.38;;;12.18;;
13252;SDS011;6693;54.370;10.132;2023-02-08T03:15:22;25.35;;;10.80;;
13252;SDS011;6693;54.370;10.132;2023-02-08T03:16:31;26.23;;;12.68;;
13252;SDS011;6693;54.370;10.132;2023-02-08T03:17:50;22.85;;;9.20;;
13252;SDS011;6693;54.370;10.132;2023-02-08T03:19:05;26.17;;;11.93;;
13252;SDS011;6693;54.370;10.132;2023-02-08T03:20:10;21.92;;;10.15;;
13252;SDS011;6693;54.370;10.132;2023-02-08T03:21:16;24.70;;;10.98;;
13252;SDS011;6693;54.370;10.132;2023-02-08T03:22:21;24.00;;;10.93;;
13252;SDS011;6693;54.370;10.132;2023-02-08T03:23:26;25.38;;;13.05;;
13252;SDS011;6693;54.370;10.132;2023-02-08T03:24:32;25.05;;;11.75;;
13252;SDS011;6693;54.370;10.132;2023-02-08T03:25:38;24.70;;;12.13;;
13252;SDS011;6693;54.370;10.132;2023-02-08T03:26:48;24.23;;;11.82;;
13252;SDS011;6693;54.370;10.132;2023-02-08T03:27:55;26.73;;;11.65;;
13252;SDS011;6693;54.370;10.132;2023-02-08T03:29:07;23.40;;;10.30;;
13252;SDS011;6693;54.370;10.132;2023-02-08T03:30:11;22.45;;;11.45;;
13252;SDS011;6693;54.370;10.132;2023-02-08T03:31:17;25.38;;;11.38;;
13252;SDS011;6693;54.370;10.132;2023-02-08T03:32:22;23.08;;;11.77;;
13252;SDS011;6693;54.370;10.132;2023-02-08T03:33:31;25.17;;;12.20;;
13252;SDS011;6693;54.370;10.132;2023-02-08T03:34:34;24.70;;;11.55;;
13252;SDS011;6693;54.370;10.132;2023-02-08T03:35:45;23.90;;;10.77;;
13252;SDS011;6693;54.370;10.132;2023-02-08T03:36:51;25.30;;;11.65;;
13252;SDS011;6693;54.370;10.132;2023-02-08T03:37:57;26.02;;;12.40;;
13252;SDS011;6693;54.370;10.132;2023-02-08T03:39:02;24.73;;;12.20;;
13252;SDS011;6693;54.370;10.132;2023-02-08T03:40:06;24.08;;;11.27;;
13252;SDS011;6693;54.370;10.132;2023-02-08T03:41:14;22.90;;;11.73;;
13252;SDS011;6693;54.370;10.132;2023-02-08T03:42:18;22.63;;;12.02;;
13252;SDS011;6693;54.370;10.132;2023-02-08T03:43:24;23.88;;;12.20;;
13252;SDS011;6693;54.370;10.132;2023-02-08T03:44:28;25.85;;;12.63;;
13252;SDS011;6693;54.370;10.132;2023-02-08T03:45:35;24.60;;;12.05;;
13252;SDS011;6693;54.370;10.132;2023-02-08T03:46:38;27.38;;;12.85;;
13252;SDS011;6693;54.370;10.132;2023-02-08T03:47:44;25.30;;;12.40;;
13252;SDS011;6693;54.370;10.132;2023-02-08T03:48:50;26.25;;;12.52;;
13252;SDS011;6693;54.370;10.132;2023-02-08T03:49:57;24.02;;;12.90;;
13252;SDS011;6693;54.370;10.132;2023-02-08T03:50:59;25.33;;;12.52;;
13252;SDS011;6693;54.370;10.132;2023-02-08T03:52:05;25.75;;;12.13;;
13252;SDS011;6693;54.370;10.132;2023-02-08T03:53:08;27.08;;;11.45;;
13252;SDS011;6693;54.370;10.132;2023-02-08T03:54:14;25.30;;;11.80;;
13252;SDS011;6693;54.370;10.132;2023-02-08T03:55:17;23.02;;;12.13;;
13252;SDS011;6693;54.370;10.132;2023-02-08T03:56:25;24.52;;;12.30;;
13252;SDS011;6693;54.370;10.132;2023-02-08T03:57:32;25.63;;;12.38;;
13252;SDS011;6693;54.370;10.132;2023-02-08T03:58:37;25.17;;;11.18;;
13252;SDS011;6693;54.370;10.132;2023-02-08T03:59:42;24.38;;;12.23;;
13252;SDS011;6693;54.370;10.132;2023-02-08T04:00:47;27.70;;;11.65;;
13252;SDS011;6693;54.370;10.132;2023-02-08T04:01:53;24.63;;;12.85;;
13252;SDS011;6693;54.370;10.132;2023-02-08T04:03:00;24.63;;;12.07;;
13252;SDS011;6693;54.370;10.132;2023-02-08T04:04:06;25.60;;;11.98;;
13252;SDS011;6693;54.370;10.132;2023-02-08T04:05:09;25.67;;;12.15;;
13252;SDS011;6693;54.370;10.132;2023-02-08T04:06:10;23.67;;;11.15;;
13252;SDS011;6693;54.370;10.132;2023-02-08T04:07:15;26.67;;;12.65;;
13252;SDS011;6693;54.370;10.132;2023-02-08T04:08:16;29.83;;;13.27;;
13252;SDS011;6693;54.370;10.132;2023-02-08T04:09:19;27.90;;;12.80;;
13252;SDS011;6693;54.370;10.132;2023-02-08T04:10:20;24.40;;;12.35;;
13252;SDS011;6693;54.370;10.132;2023-02-08T04:11:23;25.63;;;12.90;;
13252;SDS011;6693;54.370;10.132;2023-02-08T04:12:24;27.40;;;13.63;;
13252;SDS011;6693;54.370;10.132;2023-02-08T04:13:27;28.15;;;13.32;;
13252;SDS011;6693;54.370;10.132;2023-02-08T04:14:27;27.83;;;12.35;;
13252;SDS011;6693;54.370;10.132;2023-02-08T04:15:30;28.77;;;13.13;;
13252;SDS011;6693;54.370;10.132;2023-02-08T04:16:31;26.17;;;13.68;;
13252;SDS011;6693;54.370;10.132;2023-02-08T04:17:34;27.55;;;13.15;;
13252;SDS011;6693;54.370;10.132;2023-02-08T04:18:35;27.42;;;12.38;;
13252;SDS011;6693;54.370;10.132;2023-02-08T04:19:41;25.50;;;11.35;;
13252;SDS011;6693;54.370;10.132;2023-02-08T04:20:44;24.00;;;12.52;;
13252;SDS011;6693;54.370;10.132;2023-02-08T04:21:45;25.83;;;10.63;;
13252;SDS011;6693;54.370;10.132;2023-02-08T04:22:48;25.27;;;12.48;;
13252;SDS011;6693;54.370;10.132;2023-02-08T04:23:48;22.80;;;11.32;;
13252;SDS011;6693;54.370;10.132;2023-02-08T04:24:51;26.33;;;12.65;;
13252;SDS011;6693;54.370;10.132;2023-02-08T04:25:52;24.08;;;11.50;;
13252;SDS011;6693;54.370;10.132;2023-02-08T04:26:55;23.77;;;11.68;;
13252;SDS011;6693;54.370;10.132;2023-02-08T04:27:56;21.27;;;10.05;;
13252;SDS011;6693;54.370;10.132;2023-02-08T04:28:59;24.08;;;11.48;;
13252;SDS011;6693;54.370;10.132;2023-02-08T04:29:59;21.92;;;10.55;;
13252;SDS011;6693;54.370;10.132;2023-02-08T04:31:03;23.23;;;12.23;;
13252;SDS011;6693;54.370;10.132;2023-02-08T04:32:03;25.20;;;12.10;;
13252;SDS011;6693;54.370;10.132;2023-02-08T04:33:10;21.63;;;9.68;;
13252;SDS011;6693;54.370;10.132;2023-02-08T04:34:14;24.90;;;11.02;;
13252;SDS011;6693;54.370;10.132;2023-02-08T04:35:20;23.83;;;11.18;;
13252;SDS011;6693;54.370;10.132;2023-02-08T04:36:20;25.33;;;12.60;;
13252;SDS011;6693;54.370;10.132;2023-02-08T04:37:23;21.85;;;10.38;;
13252;SDS011;6693;54.370;10.132;2023-02-08T04:38:24;24.75;;;12.32;;
13252;SDS011;6693;54.370;10.132;2023-02-08T04:39:27;26.25;;;10.70;;
13252;SDS011;6693;54.370;10.132;2023-02-08T04:40:28;26.98;;;11.80;;
13252;SDS011;6693;54.370;10.132;2023-02-08T04:41:31;22.90;;;11.45;;
13252;SDS011;6693;54.370;10.132;2023-02-08T04:42:31;25.08;;;11.88;;
13252;SDS011;6693;54.370;10.132;2023-02-08T04:43:35;23.13;;;11.38;;
13252;SDS011;6693;54.370;10.132;2023-02-08T04:44:35;23.30;;;11.82;;
13252;SDS011;6693;54.370;10.132;2023-02-08T04:45:38;24.90;;;11.88;;
13252;SDS011;6693;54.370;10.132;2023-02-08T04:46:39;23.92;;;11.50;;
13252;SDS011;6693;54.370;10.132;2023-02-08T04:47:42;22.20;;;10.80;;
13252;SDS011;6693;54.370;10.132;2023-02-08T04:48:43;25.15;;;12.38;;
13252;SDS011;6693;54.370;10.132;2023-02-08T04:49:46;23.92;;;11.77;;
13252;SDS011;6693;54.370;10.132;2023-02-08T04:50:49;23.83;;;12.27;;
13252;SDS011;6693;54.370;10.132;2023-02-08T04:51:52;22.75;;;10.13;;
13252;SDS011;6693;54.370;10.132;2023-02-08T04:52:53;19.27;;;9.50;;
13252;SDS011;6693;54.370;10.132;2023-02-08T04:53:56;23.48;;;10.30;;
13252;SDS011;6693;54.370;10.132;2023-02-08T04:54:56;22.40;;;10.98;;
13252;SDS011;6693;54.370;10.132;2023-02-08T04:56:00;19.17;;;8.32;;
13252;SDS011;6693;54.370;10.132;2023-02-08T04:57:00;24.70;;;12.55;;
13252;SDS011;6693;54.370;10.132;2023-02-08T04:58:03;25.35;;;12.50;;
13252;SDS011;6693;54.370;10.132;2023-02-08T04:59:04;25.15;;;11.98;;
13252;SDS011;6693;54.370;10.132;2023-02-08T05:00:07;26.23;;;12.85;;
13252;SDS011;6693;54.370;10.132;2023-02-08T05:01:09;26.83;;;13.13;;
13252;SDS011;6693;54.370;10.132;2023-02-08T05:02:12;25.63;;;13.40;;
13252;SDS011;6693;54.370;10.132;2023-02-08T05:03:13;23.90;;;12.55;;
13252;SDS011;6693;54.370;10.132;2023-02-08T05:04:16;24.02;;;12.02;;
13252;SDS011;6693;54.370;10.132;2023-02-08T05:05:17;27.02;;;13.43;;
13252;SDS011;6693;54.370;10.132;2023-02-08T05:06:23;25.40;;;12.45;;
13252;SDS011;6693;54.370;10.132;2023-02-08T05:07:23;23.17;;;12.35;;
13252;SDS011;6693;54.370;10.132;2023-02-08T05:08:26;25.42;;;13.55;;
13252;SDS011;6693;54.370;10.132;2023-02-08T05:09:28;26.23;;;13.13;;
13252;SDS011;6693;54.370;10.132;2023-02-08T05:10:31;25.77;;;13.30;;
13252;SDS011;6693;54.370;10.132;2023-02-08T05:11:31;27.15;;;13.88;;
13252;SDS011;6693;54.370;10.132;2023-02-08T05:12:35;27.88;;;14.60;;
13252;SDS011;6693;54.370;10.132;2023-02-08T05:13:35;28.08;;;14.52;;
13252;SDS011;6693;54.370;10.132;2023-02-08T05:14:38;27.23;;;14.68;;
13252;SDS011;6693;54.370;10.132;2023-02-08T05:15:39;25.75;;;13.20;;
13252;SDS011;6693;54.370;10.132;2023-02-08T05:16:42;26.35;;;13.70;;
13252;SDS011;6693;54.370;10.132;2023-02-08T05:17:43;28.90;;;14.80;;
13252;SDS011;6693;54.370;10.132;2023-02-08T05:18:46;24.45;;;13.15;;
13252;SDS011;6693;54.370;10.132;2023-02-08T05:19:46;24.63;;;11.63;;
13252;SDS011;6693;54.370;10.132;2023-02-08T05:20:53;23.45;;;12.57;;
13252;SDS011;6693;54.370;10.132;2023-02-08T05:21:59;25.30;;;13.82;;
13252;SDS011;6693;54.370;10.132;2023-02-08T05:23:02;25.30;;;13.30;;
13252;SDS011;6693;54.370;10.132;2023-02-08T05:24:03;28.08;;;13.52;;
13252;SDS011;6693;54.370;10.132;2023-02-08T05:25:06;24.33;;;12.93;;
13252;SDS011;6693;54.370;10.132;2023-02-08T05:26:08;26.55;;;12.82;;
13252;SDS011;6693;54.370;10.132;2023-02-08T05:27:12;27.35;;;15.00;;
13252;SDS011;6693;54.370;10.132;2023-02-08T05:28:13;27.13;;;13.63;;
13252;SDS011;6693;54.370;10.132;2023-02-08T05:29:17;29.33;;;13.23;;
13252;SDS011;6693;54.370;10.132;2023-02-08T05:30:17;27.85;;;13.40;;
13252;SDS011;6693;54.370;10.132;2023-02-08T05:31:22;25.58;;;12.43;;
13252;SDS011;6693;54.370;10.132;2023-02-08T05:32:23;25.60;;;13.00;;
13252;SDS011;6693;54.370;10.132;2023-02-08T05:33:26;25.17;;;12.88;;
13252;SDS011;6693;54.370;10.132;2023-02-08T05:34:27;26.10;;;13.23;;
13252;SDS011;6693;54.370;10.132;2023-02-08T05:35:30;26.45;;;13.05;;
13252;SDS011;6693;54.370;10.132;2023-02-08T05:36:31;26.40;;;13.43;;
13252;SDS011;6693;54.370;10.132;2023-02-08T05:37:37;25.45;;;13.32;;
13252;SDS011;6693;54.370;10.132;2023-02-08T05:38:37;25.30;;;12.98;;
13252;SDS011;6693;54.370;10.132;2023-02-08T05:39:40;27.48;;;15.07;;
13252;SDS011;6693;54.370;10.132;2023-02-08T05:40:41;27.23;;;14.50;;
13252;SDS011;6693;54.370;10.132;2023-02-08T05:41:44;25.75;;;13.05;;
13252;SDS011;6693;54.370;10.132;2023-02-08T05:42:45;27.00;;;13.93;;
13252;SDS011;6693;54.370;10.132;2023-02-08T05:43:48;26.65;;;13.90;;
13252;SDS011;6693;54.370;10.132;2023-02-08T05:44:48;27.80;;;13.98;;
13252;SDS011;6693;54.370;10.132;2023-02-08T05:45:51;27.33;;;14.77;;
13252;SDS011;6693;54.370;10.132;2023-02-08T05:46:52;25.10;;;13.57;;
13252;SDS011;6693;54.370;10.132;2023-02-08T05:47:55;27.88;;;13.90;;
13252;SDS011;6693;54.370;10.132;2023-02-08T05:48:56;30.38;;;14.27;;
13252;SDS011;6693;54.370;10.132;2023-02-08T05:49:59;25.05;;;12.82;;
13252;SDS011;6693;54.370;10.132;2023-02-08T05:51:00;24.48;;;13.05;;
13252;SDS011;6693;54.370;10.132;2023-02-08T05:52:03;27.90;;;13.63;;
13252;SDS011;6693;54.370;10.132;2023-02-08T05:53:06;26.08;;;13.00;;
13252;SDS011;6693;54.370;10.132;2023-02-08T05:54:10;31.13;;;13.85;;
13252;SDS011;6693;54.370;10.132;2023-02-08T05:55:11;25.50;;;13.57;;
13252;SDS011;6693;54.370;10.132;2023-02-08T05:56:14;26.75;;;14.35;;
13252;SDS011;6693;54.370;10.132;2023-02-08T05:57:14;31.63;;;16.60;;
13252;SDS011;6693;54.370;10.132;2023-02-08T05:58:17;33.63;;;20.20;;
13252;SDS011;6693;54.370;10.132;2023-02-08T05:59:18;33.17;;;16.95;;
13252;SDS011;6693;54.370;10.132;2023-02-08T06:00:21;29.17;;;14.88;;
13252;SDS011;6693;54.370;10.132;2023-02-08T06:01:22;27.75;;;13.55;;
13252;SDS011;6693;54.370;10.132;2023-02-08T06:02:25;27.70;;;13.68;;
13252;SDS011;6693;54.370;10.132;2023-02-08T06:03:26;28.00;;;13.60;;
13252;SDS011;6693;54.370;10.132;2023-02-08T06:04:29;27.83;;;14.48;;
13252;SDS011;6693;54.370;10.132;2023-02-08T06:05:29;30.00;;;14.68;;
13252;SDS011;6693;54.370;10.132;2023-02-08T06:06:33;23.73;;;12.25;;
13252;SDS011;6693;54.370;10.132;2023-02-08T06:07:33;28.00;;;14.00;;
13252;SDS011;6693;54.370;10.132;2023-02-08T06:08:39;27.55;;;13.20;;
13252;SDS011;6693;54.370;10.132;2023-02-08T06:09:40;27.48;;;13.90;;
13252;SDS011;6693;54.370;10.132;2023-02-08T06:10:43;29.02;;;13.90;;
13252;SDS011;6693;54.370;10.132;2023-02-08T06:11:45;28.08;;;14.05;;
13252;SDS011;6693;54.370;10.132;2023-02-08T06:12:48;28.90;;;14.20;;
13252;SDS011;6693;54.370;10.132;2023-02-08T06:13:48;26.98;;;13.70;;
13252;SDS011;6693;54.370;10.132;2023-02-08T06:14:51;27.55;;;14.27;;
13252;SDS011;6693;54.370;10.132;2023-02-08T06:15:52;29.77;;;14.88;;
13252;SDS011;6693;54.370;10.132;2023-02-08T06:16:55;28.33;;;13.52;;
13252;SDS011;6693;54.370;10.132;2023-02-08T06:17:58;29.67;;;14.05;;
13252;SDS011;6693;54.370;10.132;2023-02-08T06:18:59;27.40;;;12.52;;
13252;SDS011;6693;54.370;10.132;2023-02-08T06:20:02;28.80;;;14.18;;
13252;SDS011;6693;54.370;10.132;2023-02-08T06:21:03;27.17;;;14.90;;